Time;durP1;ratioP1;P1;durP2;ratioP2;P2;SDS_P1;SDS_P2;PMS_P1;PMS_P2;Temp;Humidity;BMP_temperature;BMP_pressure;BME280_temperature;BME280_humidity;BME280_pressure;Samples;Min_cycle;Max_cycle;Signal;HPM_P1;HPM_P2
2022/04/30 00:00:09;;;;;;;37.00;26.33;;;12.60;63.40;;;;;;4980293;28;20059;-44
2022/04/30 00:02:37;;;;;;;38.42;25.08;;;12.60;63.50;;;;;;4979367;28;20062;-42
2022/04/30 00:05:05;;;;;;;41.00;24.67;;;12.60;63.70;;;;;;4980309;28;20704;-42
2022/04/30 00:07:32;;;;;;;40.95;25.40;;;12.60;63.80;;;;;;4979957;28;20046;-42
2022/04/30 00:10:00;;;;;;;36.08;24.60;;;12.60;63.80;;;;;;4981271;28;20050;-43
2022/04/30 00:12:29;;;;;;;36.28;24.52;;;12.50;63.80;;;;;;4977503;28;20054;-43
2022/04/30 00:14:57;;;;;;;36.35;23.42;;;12.50;64.00;;;;;;4979987;28;20058;-45
2022/04/30 00:17:24;;;;;;;35.20;22.55;;;12.50;64.00;;;;;;4980339;28;20062;-45
2022/04/30 00:19:52;;;;;;;37.75;24.77;;;12.40;63.90;;;;;;4980234;28;20073;-44
2022/04/30 00:22:19;;;;;;;42.13;24.17;;;12.40;64.20;;;;;;4978865;28;20510;-43
2022/04/30 00:24:48;;;;;;;34.60;23.00;;;12.30;64.20;;;;;;4980612;28;20050;-42
2022/04/30 00:27:15;;;;;;;41.67;24.25;;;12.30;64.30;;;;;;4980626;28;20050;-42
2022/04/30 00:29:46;;;;;;;35.92;23.63;;;12.30;64.50;;;;;;4981582;28;20047;-43
2022/04/30 00:32:14;;;;;;;38.40;23.35;;;12.30;64.70;;;;;;4977292;28;20085;-43
2022/04/30 00:34:42;;;;;;;32.08;20.98;;;12.20;64.70;;;;;;4978555;28;20058;-43
2022/04/30 00:37:09;;;;;;;43.08;25.15;;;12.20;64.90;;;;;;4981239;28;20537;-43
2022/04/30 00:39:37;;;;;;;34.33;23.08;;;12.20;65.20;;;;;;4981877;28;20058;-43
2022/04/30 00:42:05;;;;;;;39.58;23.80;;;12.20;65.20;;;;;;4978793;28;20054;-43
2022/04/30 00:44:32;;;;;;;35.53;23.90;;;12.20;65.50;;;;;;4981218;28;20051;-43
2022/04/30 00:47:01;;;;;;;39.10;24.38;;;12.10;65.60;;;;;;4980703;28;20062;-42
2022/04/30 00:49:29;;;;;;;36.05;24.35;;;12.10;65.70;;;;;;4985823;28;20418;-42
2022/04/30 00:52:02;;;;;;;35.05;23.88;;;12.10;65.90;;;;;;4978286;28;20069;-42
2022/04/30 00:54:34;;;;;;;39.83;25.05;;;12.00;66.20;;;;;;4980276;28;20054;-42
2022/04/30 00:57:04;;;;;;;34.22;23.48;;;12.00;66.00;;;;;;4980834;28;20731;-43
2022/04/30 00:59:32;;;;;;;34.33;22.90;;;12.00;65.90;;;;;;4980905;28;20058;-43
2022/04/30 01:02:00;;;;;;;38.08;23.20;;;12.00;65.90;;;;;;4977649;28;20430;-43
2022/04/30 01:04:28;;;;;;;37.55;23.25;;;11.90;66.00;;;;;;4978772;28;20498;-42
2022/04/30 01:06:58;;;;;;;32.00;22.55;;;11.90;66.10;;;;;;4979736;28;20054;-43
2022/04/30 01:09:28;;;;;;;33.90;23.98;;;11.90;66.50;;;;;;4981629;28;20077;-42
2022/04/30 01:11:57;;;;;;;35.63;23.17;;;11.80;66.40;;;;;;4978885;28;20058;-43
2022/04/30 01:14:29;;;;;;;41.88;22.80;;;11.80;66.40;;;;;;4978185;28;20062;-43
2022/04/30 01:16:58;;;;;;;35.78;21.85;;;11.80;66.60;;;;;;4979962;28;20050;-42
2022/04/30 01:19:28;;;;;;;31.48;21.35;;;11.80;66.40;;;;;;4977958;28;20414;-47
2022/04/30 01:21:59;;;;;;;39.05;21.77;;;11.80;66.60;;;;;;4978079;28;20537;-44
2022/04/30 01:24:30;;;;;;;33.47;21.52;;;11.70;66.60;;;;;;4982914;28;20050;-43
2022/04/30 01:26:59;;;;;;;31.75;21.35;;;11.70;66.60;;;;;;4983353;28;21325;-42
2022/04/30 01:29:32;;;;;;;35.10;21.98;;;11.70;66.60;;;;;;4984901;28;20062;-43
2022/04/30 01:37:36;;;;;;;37.00;22.25;;;11.60;67.00;;;;;;4987546;28;20442;-43
2022/04/30 01:40:06;;;;;;;33.63;21.30;;;11.60;67.00;;;;;;4981482;28;20502;-43
2022/04/30 01:42:37;;;;;;;33.40;21.45;;;11.60;67.20;;;;;;4981340;28;20508;-42
2022/04/30 01:45:06;;;;;;;38.25;21.15;;;11.50;67.30;;;;;;4983550;28;20054;-44
2022/04/30 01:47:36;;;;;;;32.20;20.80;;;11.40;67.40;;;;;;4983893;28;20509;-43
2022/04/30 01:50:05;;;;;;;29.20;20.38;;;11.40;67.50;;;;;;4981363;28;20051;-43
2022/04/30 01:52:32;;;;;;;34.70;20.55;;;11.30;67.60;;;;;;4982452;28;20062;-44
2022/04/30 01:55:00;;;;;;;32.97;21.88;;;11.30;67.70;;;;;;4982967;28;20058;-44
2022/04/30 01:57:29;;;;;;;32.58;20.52;;;11.30;67.90;;;;;;4983926;28;20509;-43
2022/04/30 01:59:58;;;;;;;35.38;21.85;;;11.30;68.30;;;;;;4984254;28;20058;-43
2022/04/30 02:02:36;;;;;;;36.45;21.13;;;11.20;68.30;;;;;;4976177;28;20414;-44
2022/04/30 02:05:06;;;;;;;34.05;19.67;;;11.20;68.40;;;;;;4980077;28;20062;-42
2022/04/30 02:07:37;;;;;;;33.13;20.40;;;11.20;67.80;;;;;;4984059;28;20054;-43
2022/04/30 02:10:06;;;;;;;27.20;18.77;;;11.20;67.90;;;;;;4984477;28;20055;-46
2022/04/30 02:12:36;;;;;;;31.65;19.63;;;11.10;67.20;;;;;;4980604;28;20058;-44
2022/04/30 02:15:05;;;;;;;30.92;19.50;;;11.10;67.30;;;;;;4979540;28;20069;-45
2022/04/30 02:17:36;;;;;;;30.38;19.98;;;11.00;67.60;;;;;;4983044;28;20046;-44
2022/04/30 02:20:24;;;;;;;30.80;19.20;;;11.00;67.60;;;;;;4980774;28;20341;-43
2022/04/30 02:22:54;;;;;;;32.92;19.67;;;11.00;67.50;;;;;;4976229;28;20062;-43
2022/04/30 02:25:22;;;;;;;29.70;19.25;;;10.90;67.50;;;;;;4983399;28;20054;-43
2022/04/30 02:27:53;;;;;;;29.77;18.63;;;10.90;67.50;;;;;;4982631;28;20054;-43
2022/04/30 02:30:22;;;;;;;33.55;19.35;;;10.80;67.70;;;;;;4981941;28;20069;-45
2022/04/30 02:32:51;;;;;;;27.98;18.92;;;10.80;68.20;;;;;;4980310;28;20544;-43
2022/04/30 02:35:20;;;;;;;36.50;21.20;;;10.80;68.30;;;;;;4982456;28;20058;-43
2022/04/30 02:37:50;;;;;;;35.25;19.25;;;10.80;68.60;;;;;;4982631;28;20046;-43
2022/04/30 02:40:18;;;;;;;28.73;19.58;;;10.80;69.00;;;;;;4983929;28;20054;-43
2022/04/30 02:42:47;;;;;;;31.35;18.67;;;10.80;69.10;;;;;;4980936;28;20498;-43
2022/04/30 02:45:16;;;;;;;27.70;18.05;;;10.70;69.10;;;;;;4981921;28;20069;-44
2022/04/30 02:47:46;;;;;;;27.83;18.33;;;10.70;68.80;;;;;;4983213;28;20051;-44
2022/04/30 02:50:15;;;;;;;27.80;17.10;;;10.80;68.70;;;;;;4980604;28;20061;-45
2022/04/30 02:52:43;;;;;;;33.10;16.90;;;10.70;68.10;;;;;;4982433;28;20066;-42
2022/04/30 02:55:11;;;;;;;29.85;17.67;;;10.70;67.80;;;;;;4982177;28;20066;-46
2022/04/30 02:59:53;;;;;;;31.35;16.23;;;10.70;67.20;;;;;;4982584;28;20058;-43
2022/04/30 03:00:29;;;;;;;28.77;17.75;;;10.70;66.90;;;;;;4978657;28;20525;-43
2022/04/30 03:02:57;;;;;;;29.27;16.75;;;10.60;66.70;;;;;;4976944;28;20046;-43
2022/04/30 03:05:25;;;;;;;24.50;15.73;;;10.60;66.80;;;;;;4979512;28;20554;-46
2022/04/30 03:07:53;;;;;;;24.92;17.08;;;10.60;66.80;;;;;;4981641;28;20058;-43
2022/04/30 03:10:21;;;;;;;27.52;17.35;;;10.50;66.90;;;;;;4981157;28;20529;-43
2022/04/30 03:12:49;;;;;;;26.48;16.70;;;10.50;67.00;;;;;;4980458;28;20061;-43
2022/04/30 03:15:19;;;;;;;31.25;17.80;;;10.40;67.20;;;;;;4980098;28;20057;-44
2022/04/30 03:23:18;;;;;;;33.75;17.05;;;10.40;67.80;;;;;;4987448;28;20061;-43
2022/04/30 03:25:46;;;;;;;26.45;16.73;;;10.40;67.90;;;;;;4982956;28;20058;-43
2022/04/30 03:28:13;;;;;;;27.90;16.08;;;10.40;67.90;;;;;;4980429;28;20055;-42
2022/04/30 03:30:41;;;;;;;26.25;16.67;;;10.40;67.80;;;;;;4980818;28;20058;-42
2022/04/30 03:33:10;;;;;;;25.35;16.05;;;10.40;67.80;;;;;;4981394;28;20058;-42
2022/04/30 03:35:39;;;;;;;27.08;17.08;;;10.40;67.60;;;;;;4979355;28;20057;-42
2022/04/30 03:38:08;;;;;;;27.17;16.80;;;10.50;67.40;;;;;;4982458;28;20051;-42
2022/04/30 03:40:38;;;;;;;28.35;17.48;;;10.50;67.20;;;;;;4980654;28;20871;-45
2022/04/30 03:43:06;;;;;;;24.80;16.90;;;10.50;67.20;;;;;;4975832;28;20062;-43
2022/04/30 03:45:35;;;;;;;24.38;16.42;;;10.50;67.10;;;;;;4979359;28;20574;-43
2022/04/30 03:48:02;;;;;;;24.30;15.85;;;10.50;66.90;;;;;;4975138;28;20054;-42
2022/04/30 03:50:31;;;;;;;28.35;15.65;;;10.40;66.70;;;;;;4981016;28;20487;-43
2022/04/30 03:52:58;;;;;;;27.05;15.57;;;10.40;66.80;;;;;;4980306;28;20051;-45
2022/04/30 03:55:27;;;;;;;26.38;17.38;;;10.50;66.80;;;;;;4978674;28;20054;-42
2022/04/30 03:57:55;;;;;;;33.00;17.25;;;10.50;66.70;;;;;;4981066;28;20058;-44
2022/04/30 04:00:23;;;;;;;20.80;14.50;;;10.50;66.60;;;;;;4981143;28;20061;-42
2022/04/30 04:02:51;;;;;;;31.08;16.73;;;10.50;66.60;;;;;;4980394;28;20065;-42
2022/04/30 04:05:19;;;;;;;26.67;17.33;;;10.50;66.30;;;;;;4979322;28;20058;-42
2022/04/30 04:07:47;;;;;;;27.65;16.70;;;10.50;66.10;;;;;;4982134;28;20065;-42
2022/04/30 04:10:15;;;;;;;23.63;15.10;;;10.50;66.20;;;;;;4980705;28;20065;-42
2022/04/30 04:12:42;;;;;;;27.90;16.67;;;10.40;66.20;;;;;;4981309;28;20058;-42
2022/04/30 04:17:56;;;;;;;30.65;16.40;;;10.40;65.90;;;;;;4983789;28;20073;-45
2022/04/30 04:20:25;;;;;;;28.50;16.02;;;10.40;65.80;;;;;;4980908;28;20059;-44
2022/04/30 04:22:55;;;;;;;22.08;15.20;;;10.40;65.90;;;;;;4980657;28;20558;-43
2022/04/30 04:28:08;;;;;;;26.13;14.57;;;10.30;66.60;;;;;;4984690;28;20057;-43
2022/04/30 04:30:36;;;;;;;32.70;15.85;;;10.30;65.70;;;;;;4979858;28;20065;-43
2022/04/30 04:33:03;;;;;;;22.02;14.63;;;10.30;65.70;;;;;;4979012;28;20061;-43
2022/04/30 04:35:31;;;;;;;30.65;15.25;;;10.20;65.70;;;;;;4982296;28;20138;-42
2022/04/30 04:38:00;;;;;;;27.10;15.15;;;10.30;65.80;;;;;;4981146;28;20077;-44
2022/04/30 04:40:28;;;;;;;21.98;14.88;;;10.20;65.50;;;;;;4980477;28;20516;-43
2022/04/30 04:42:55;;;;;;;24.65;13.85;;;10.20;65.60;;;;;;4979555;28;20499;-43
2022/04/30 04:45:26;;;;;;;20.58;14.18;;;10.20;65.70;;;;;;4981239;28;20054;-44
2022/04/30 04:47:54;;;;;;;22.08;14.32;;;10.10;65.60;;;;;;4976987;28;20054;-44
2022/04/30 04:50:23;;;;;;;24.33;14.30;;;10.10;65.50;;;;;;4980093;28;20065;-43
2022/04/30 04:52:51;;;;;;;28.00;15.35;;;10.10;65.50;;;;;;4980468;28;20061;-43
2022/04/30 04:55:20;;;;;;;25.98;13.93;;;10.00;65.40;;;;;;4981737;28;20058;-43
2022/04/30 04:57:47;;;;;;;22.75;14.10;;;10.00;65.50;;;;;;4979036;28;20487;-44
2022/04/30 05:00:16;;;;;;;28.08;14.05;;;10.00;65.70;;;;;;4982755;28;20050;-43
2022/04/30 05:02:43;;;;;;;22.10;13.50;;;9.90;65.70;;;;;;4983732;28;20058;-43
2022/04/30 05:05:12;;;;;;;26.05;14.75;;;9.90;65.70;;;;;;4982849;28;20063;-45
2022/04/30 05:07:39;;;;;;;25.73;13.95;;;9.90;65.60;;;;;;4981739;28;20054;-43
2022/04/30 05:10:08;;;;;;;25.48;13.80;;;9.80;65.50;;;;;;4984544;28;20051;-44
2022/04/30 05:12:36;;;;;;;23.83;14.60;;;9.80;65.40;;;;;;4983479;28;20521;-45
2022/04/30 05:15:04;;;;;;;30.25;14.43;;;9.80;65.40;;;;;;4984102;28;20054;-45
2022/04/30 05:17:32;;;;;;;23.73;14.25;;;9.80;65.40;;;;;;4982662;28;20138;-43
2022/04/30 05:20:00;;;;;;;24.95;14.18;;;9.70;65.20;;;;;;4983006;28;20054;-43
2022/04/30 05:22:27;;;;;;;21.00;13.85;;;9.70;65.00;;;;;;4982228;28;20438;-45
2022/04/30 05:24:55;;;;;;;25.23;14.90;;;9.70;65.10;;;;;;4983047;28;20379;-44
2022/04/30 05:27:22;;;;;;;25.58;14.57;;;9.70;65.10;;;;;;4979578;28;20494;-44
2022/04/30 05:29:51;;;;;;;20.67;14.27;;;9.70;65.40;;;;;;4980829;28;20073;-43
2022/04/30 05:32:18;;;;;;;22.40;14.82;;;9.70;65.50;;;;;;4974994;28;20050;-43
2022/04/30 05:34:46;;;;;;;26.70;15.32;;;9.70;65.60;;;;;;4975710;28;20728;-43
2022/04/30 05:37:14;;;;;;;25.25;15.23;;;9.60;65.60;;;;;;4983013;28;20057;-43
2022/04/30 05:39:41;;;;;;;25.83;14.30;;;9.70;65.90;;;;;;4983194;28;20061;-47
2022/04/30 05:42:09;;;;;;;21.40;13.60;;;9.60;65.50;;;;;;4974433;28;20074;-44
2022/04/30 05:44:36;;;;;;;22.83;14.77;;;9.60;65.60;;;;;;4977631;28;20057;-43
2022/04/30 05:47:06;;;;;;;22.15;13.55;;;9.70;65.30;;;;;;4981840;28;20498;-44
2022/04/30 05:49:34;;;;;;;21.95;12.90;;;9.70;65.20;;;;;;4981518;28;20050;-44
2022/04/30 05:52:02;;;;;;;30.27;15.27;;;9.60;64.80;;;;;;4980210;28;20054;-42
2022/04/30 05:54:31;;;;;;;25.60;14.00;;;9.60;64.70;;;;;;4982359;28;20058;-43
2022/04/30 05:56:58;;;;;;;22.13;14.80;;;9.60;64.60;;;;;;4982688;28;20495;-43
2022/04/30 05:59:26;;;;;;;23.85;13.73;;;9.60;64.60;;;;;;4981093;28;20118;-44
2022/04/30 06:01:53;;;;;;;20.88;12.80;;;9.60;64.40;;;;;;4973197;28;20058;-43
2022/04/30 06:04:22;;;;;;;21.15;13.60;;;9.60;64.20;;;;;;4981094;28;20078;-43
2022/04/30 06:06:50;;;;;;;20.67;13.68;;;9.60;64.20;;;;;;4979890;28;20062;-44
2022/04/30 06:09:19;;;;;;;24.98;13.52;;;9.60;64.30;;;;;;4982413;28;20438;-43
2022/04/30 06:11:47;;;;;;;21.92;13.00;;;9.60;64.20;;;;;;4973788;28;20058;-46
2022/04/30 06:14:14;;;;;;;30.23;13.63;;;9.50;64.00;;;;;;4981360;28;20151;-43
2022/04/30 06:16:42;;;;;;;23.52;13.63;;;9.50;63.80;;;;;;4982186;28;20058;-43
2022/04/30 06:19:09;;;;;;;23.45;13.65;;;9.50;64.00;;;;;;4982770;28;20050;-43
2022/04/30 06:21:38;;;;;;;26.13;13.50;;;9.50;64.20;;;;;;4979811;28;20058;-43
2022/04/30 06:24:06;;;;;;;19.85;13.07;;;9.40;64.10;;;;;;4981508;28;20046;-42
2022/04/30 06:26:34;;;;;;;19.45;12.60;;;9.40;64.30;;;;;;4980928;28;20058;-43
2022/04/30 06:29:03;;;;;;;22.35;12.90;;;9.40;64.40;;;;;;4980964;28;20063;-43
2022/04/30 06:31:30;;;;;;;21.23;13.85;;;9.40;64.60;;;;;;4977936;28;20050;-45
2022/04/30 06:33:58;;;;;;;23.60;13.55;;;9.40;64.40;;;;;;4980871;28;20061;-43
2022/04/30 06:36:25;;;;;;;24.52;13.93;;;9.30;64.30;;;;;;4981487;28;20058;-43
2022/04/30 06:38:54;;;;;;;27.65;13.80;;;9.40;64.50;;;;;;4981484;28;20055;-43
2022/04/30 06:41:22;;;;;;;22.80;13.80;;;9.40;64.80;;;;;;4977035;28;20050;-43
2022/04/30 06:43:50;;;;;;;22.73;14.88;;;9.40;64.80;;;;;;4981445;28;20077;-43
2022/04/30 06:46:17;;;;;;;22.45;13.38;;;9.40;65.00;;;;;;4976540;28;20061;-45
2022/04/30 06:48:45;;;;;;;20.55;13.98;;;9.40;64.60;;;;;;4979823;28;20054;-43
2022/04/30 06:51:13;;;;;;;25.60;14.18;;;9.40;64.60;;;;;;4977824;28;20525;-45
2022/04/30 06:59:11;;;;;;;27.98;14.05;;;9.50;64.70;;;;;;4986906;28;20411;-43
2022/04/30 07:01:43;;;;;;;24.25;14.38;;;9.60;65.20;;;;;;4977306;28;20061;-43
2022/04/30 07:04:10;;;;;;;19.08;12.80;;;9.60;64.70;;;;;;4982052;28;20054;-43
2022/04/30 07:06:39;;;;;;;24.25;13.60;;;9.70;64.30;;;;;;4979039;28;20058;-43
2022/04/30 07:09:08;;;;;;;22.98;13.43;;;9.70;64.20;;;;;;4982793;28;20414;-43
2022/04/30 07:11:37;;;;;;;20.60;13.38;;;9.80;64.10;;;;;;4977587;28;20050;-45
2022/04/30 07:14:04;;;;;;;21.45;13.20;;;9.80;63.80;;;;;;4982690;28;20054;-43
2022/04/30 07:16:32;;;;;;;21.55;12.40;;;9.90;63.00;;;;;;4979953;28;20503;-43
2022/04/30 07:19:00;;;;;;;24.55;12.35;;;9.90;62.00;;;;;;4978762;28;20078;-45
2022/04/30 07:21:30;;;;;;;20.27;11.82;;;9.90;62.30;;;;;;4979722;28;20050;-43
2022/04/30 07:23:57;;;;;;;18.30;12.55;;;10.00;62.90;;;;;;4979850;28;20058;-43
2022/04/30 07:26:25;;;;;;;23.35;13.02;;;10.00;62.80;;;;;;4978942;28;20077;-43
2022/04/30 07:28:55;;;;;;;19.20;12.48;;;10.10;61.90;;;;;;4980769;28;20483;-43
2022/04/30 07:31:25;;;;;;;31.20;13.07;;;10.10;61.90;;;;;;4978694;28;20050;-44
2022/04/30 07:33:54;;;;;;;23.67;12.88;;;10.20;61.90;;;;;;4980298;28;20073;-43
2022/04/30 07:36:21;;;;;;;26.35;12.88;;;10.20;61.30;;;;;;4979722;28;20513;-43
2022/04/30 07:38:49;;;;;;;18.58;12.40;;;10.20;61.40;;;;;;4981093;28;20069;-43
2022/04/30 07:41:16;;;;;;;20.08;12.55;;;10.30;61.50;;;;;;4980837;28;20438;-43
2022/04/30 07:43:44;;;;;;;21.13;11.95;;;10.30;60.90;;;;;;4978335;28;20067;-44
2022/04/30 07:46:12;;;;;;;23.15;12.45;;;10.30;60.80;;;;;;4979889;28;20061;-43
2022/04/30 07:48:40;;;;;;;17.75;11.65;;;10.30;59.50;;;;;;4979950;28;20065;-43
2022/04/30 07:51:14;;;;;;;18.92;11.80;;;10.30;59.40;;;;;;4981852;28;20062;-43
2022/04/30 07:53:41;;;;;;;20.77;11.90;;;10.30;59.40;;;;;;4976128;28;20050;-43
2022/04/30 07:56:09;;;;;;;22.45;11.20;;;10.30;59.60;;;;;;4980272;28;20489;-43
2022/04/30 07:58:36;;;;;;;18.58;11.80;;;10.30;59.60;;;;;;4981265;28;20062;-43
2022/04/30 08:01:04;;;;;;;23.40;11.63;;;10.30;59.90;;;;;;4972753;28;20054;-44
2022/04/30 08:03:33;;;;;;;19.10;11.52;;;10.40;59.70;;;;;;4975172;28;20058;-43
2022/04/30 08:06:01;;;;;;;21.33;12.20;;;10.50;59.70;;;;;;4978755;28;20058;-43
2022/04/30 08:08:28;;;;;;;17.50;11.10;;;10.60;60.00;;;;;;4979892;28;20062;-43
2022/04/30 08:10:56;;;;;;;22.95;12.95;;;10.70;60.00;;;;;;4979297;28;20445;-43
2022/04/30 08:13:23;;;;;;;23.35;11.85;;;10.70;59.40;;;;;;4977044;28;20267;-42
2022/04/30 08:15:51;;;;;;;20.90;11.00;;;10.80;59.70;;;;;;4980103;28;20418;-45
2022/04/30 08:18:18;;;;;;;15.63;10.90;;;10.80;59.40;;;;;;4980137;28;20058;-45
2022/04/30 08:20:48;;;;;;;16.48;10.30;;;10.90;59.50;;;;;;4980917;28;20061;-43
2022/04/30 08:23:15;;;;;;;18.38;11.52;;;11.00;59.70;;;;;;4975463;28;20050;-43
2022/04/30 08:25:42;;;;;;;23.52;11.05;;;11.10;59.40;;;;;;4977189;28;20054;-44
2022/04/30 08:28:10;;;;;;;21.65;11.23;;;11.20;58.60;;;;;;4977219;28;20065;-43
2022/04/30 08:30:38;;;;;;;18.33;11.38;;;11.20;58.10;;;;;;4977693;28;20046;-42
2022/04/30 08:33:05;;;;;;;14.30;9.57;;;11.30;58.40;;;;;;4975924;28;20050;-42
2022/04/30 08:35:33;;;;;;;16.02;10.23;;;11.40;58.40;;;;;;4982808;28;20061;-44
2022/04/30 08:38:02;;;;;;;19.90;10.10;;;11.50;58.20;;;;;;4982539;28;20065;-42
2022/04/30 08:40:29;;;;;;;13.00;10.00;;;11.50;57.10;;;;;;4979600;28;20058;-42
2022/04/30 08:43:07;;;;;;;23.33;10.90;;;11.60;57.30;;;;;;4980932;28;20050;-43
2022/04/30 08:45:38;;;;;;;15.20;9.02;;;11.70;57.40;;;;;;4983256;28;20505;-42
2022/04/30 08:48:08;;;;;;;17.05;9.07;;;11.80;57.00;;;;;;4984596;28;20494;-44
2022/04/30 08:50:36;;;;;;;13.65;8.45;;;11.80;56.60;;;;;;4980693;28;20066;-46
2022/04/30 08:53:05;;;;;;;14.82;8.27;;;11.90;56.40;;;;;;4982083;28;20498;-42
2022/04/30 08:55:33;;;;;;;19.60;8.55;;;11.90;55.80;;;;;;4985287;28;20057;-43
2022/04/30 08:58:01;;;;;;;12.30;7.90;;;12.00;55.50;;;;;;4983368;28;20057;-43
2022/04/30 09:00:28;;;;;;;13.15;8.00;;;12.00;55.40;;;;;;4982607;28;20054;-42
2022/04/30 09:02:58;;;;;;;11.02;8.63;;;12.10;55.20;;;;;;4975745;28;20065;-43
2022/04/30 09:05:32;;;;;;;14.48;8.38;;;12.10;54.40;;;;;;4978016;28;20054;-43
2022/04/30 09:08:01;;;;;;;15.02;8.57;;;12.10;54.70;;;;;;4982393;28;20062;-42
2022/04/30 09:10:32;;;;;;;13.05;8.98;;;12.20;55.20;;;;;;4984131;28;20749;-43
2022/04/30 09:13:07;;;;;;;18.52;8.23;;;12.30;55.20;;;;;;4975653;28;20503;-43
2022/04/30 09:15:35;;;;;;;12.65;7.78;;;12.30;54.70;;;;;;4977800;28;20408;-43
2022/04/30 09:18:04;;;;;;;11.45;8.15;;;12.40;54.90;;;;;;4980921;28;20422;-42
2022/04/30 09:20:31;;;;;;;12.75;7.10;;;12.40;54.40;;;;;;4983638;28;20077;-43
2022/04/30 09:22:59;;;;;;;12.43;7.22;;;12.50;54.00;;;;;;4978085;28;20050;-43
2022/04/30 09:25:27;;;;;;;13.45;7.03;;;12.60;53.70;;;;;;4983010;28;21647;-44
2022/04/30 09:27:55;;;;;;;10.20;7.22;;;12.60;53.90;;;;;;4979843;28;20548;-43
2022/04/30 09:30:26;;;;;;;14.35;7.65;;;12.70;54.00;;;;;;4982305;28;20057;-43
2022/04/30 09:33:01;;;;;;;15.43;6.90;;;12.80;53.90;;;;;;4976432;28;20507;-42
2022/04/30 09:38:16;;;;;;;18.65;6.75;;;12.90;53.60;;;;;;4982113;28;20065;-42
2022/04/30 09:40:52;;;;;;;13.70;6.63;;;12.90;52.60;;;;;;4984924;28;20510;-42
2022/04/30 09:43:25;;;;;;;13.57;6.68;;;12.90;52.70;;;;;;4980587;28;20074;-43
2022/04/30 09:45:59;;;;;;;11.15;5.47;;;12.90;52.90;;;;;;4980517;28;20057;-42
2022/04/30 09:54:05;;;;;;;14.95;6.50;;;12.90;51.50;;;;;;4947770;28;20055;-44
2022/04/30 09:56:36;;;;;;;12.68;5.57;;;12.90;51.50;;;;;;4984093;28;20046;-46
2022/04/30 09:59:07;;;;;;;8.75;5.25;;;12.90;51.20;;;;;;4981419;28;20433;-43
2022/04/30 10:01:36;;;;;;;13.80;5.97;;;13.00;51.60;;;;;;4978679;28;20050;-43
2022/04/30 10:04:09;;;;;;;9.65;5.85;;;13.00;52.20;;;;;;4978355;28;20406;-43
2022/04/30 10:06:40;;;;;;;13.55;5.28;;;13.10;51.80;;;;;;4982104;28;20058;-43
2022/04/30 10:09:10;;;;;;;11.13;5.93;;;13.10;51.60;;;;;;4984364;28;20058;-42
2022/04/30 10:11:44;;;;;;;13.25;5.55;;;13.20;50.50;;;;;;4978746;28;20053;-43
2022/04/30 10:14:31;;;;;;;14.90;6.35;;;13.10;50.10;;;;;;4983243;28;20058;-42
2022/04/30 10:17:12;;;;;;;11.35;6.00;;;13.10;50.60;;;;;;4981225;28;20054;-43
2022/04/30 10:19:41;;;;;;;11.32;6.30;;;13.20;51.40;;;;;;4978645;28;20061;-42
2022/04/30 10:22:15;;;;;;;11.18;5.80;;;13.20;51.30;;;;;;4977828;28;20412;-45
2022/04/30 10:24:45;;;;;;;14.15;6.32;;;13.20;50.90;;;;;;4981867;28;21037;-43
2022/04/30 10:27:12;;;;;;;12.52;6.15;;;13.20;50.90;;;;;;4984161;28;20054;-43
2022/04/30 10:29:52;;;;;;;10.30;5.10;;;13.20;50.70;;;;;;4983190;28;20061;-42
2022/04/30 10:32:27;;;;;;;11.07;4.63;;;13.20;50.70;;;;;;4979114;28;20054;-42
2022/04/30 10:34:55;;;;;;;8.05;4.47;;;13.30;50.80;;;;;;4981563;28;20434;-43
2022/04/30 10:37:33;;;;;;;11.80;7.07;;;13.40;49.70;;;;;;4979825;28;20050;-42
2022/04/30 10:40:01;;;;;;;11.07;6.10;;;13.40;49.80;;;;;;4981966;28;20050;-43
2022/04/30 10:42:33;;;;;;;9.25;4.95;;;13.50;50.00;;;;;;4980558;28;20061;-42
2022/04/30 10:45:02;;;;;;;9.85;4.25;;;13.60;49.30;;;;;;4981556;28;20054;-43
2022/04/30 10:47:30;;;;;;;11.90;6.40;;;13.60;49.20;;;;;;4977633;28;20130;-43
2022/04/30 10:49:57;;;;;;;8.73;4.03;;;13.60;48.70;;;;;;4979906;28;20054;-45
2022/04/30 10:52:25;;;;;;;8.75;3.90;;;13.60;49.30;;;;;;4980489;28;20510;-42
2022/04/30 10:54:56;;;;;;;5.75;4.10;;;13.70;49.50;;;;;;4983546;28;20061;-42
2022/04/30 10:57:23;;;;;;;7.63;3.50;;;13.80;49.40;;;;;;4982541;28;20046;-42
2022/04/30 10:59:58;;;;;;;11.43;4.32;;;13.80;48.80;;;;;;4980748;28;20054;-42
2022/04/30 11:02:32;;;;;;;10.23;3.75;;;13.90;48.40;;;;;;4979223;28;20131;-43
2022/04/30 11:05:00;;;;;;;8.13;3.95;;;14.00;47.80;;;;;;4977604;28;20525;-42
2022/04/30 11:07:29;;;;;;;10.93;3.38;;;14.00;46.90;;;;;;4981756;28;20076;-42
2022/04/30 11:09:56;;;;;;;8.25;3.40;;;14.00;47.20;;;;;;4979975;28;20062;-43
2022/04/30 11:12:30;;;;;;;6.30;3.13;;;14.00;47.50;;;;;;4977524;28;20075;-46
2022/04/30 11:14:58;;;;;;;8.02;3.38;;;14.10;47.00;;;;;;4980956;28;20422;-42
2022/04/30 11:17:26;;;;;;;7.15;3.00;;;14.20;47.80;;;;;;4980495;28;20065;-47
2022/04/30 11:19:55;;;;;;;9.93;3.70;;;14.30;47.10;;;;;;4981392;28;20058;-45
2022/04/30 11:22:24;;;;;;;7.93;3.20;;;14.30;47.20;;;;;;4981814;28;20054;-42
2022/04/30 11:24:56;;;;;;;5.45;2.90;;;14.30;46.90;;;;;;4982176;28;20054;-42
2022/04/30 11:27:24;;;;;;;7.70;3.40;;;14.40;46.90;;;;;;4982767;28;20065;-44
2022/04/30 11:29:53;;;;;;;5.75;3.10;;;14.40;47.60;;;;;;4982995;28;20058;-43
2022/04/30 11:32:22;;;;;;;6.55;3.25;;;14.40;48.30;;;;;;4981127;28;20455;-43
2022/04/30 11:34:50;;;;;;;16.48;5.05;;;14.40;47.40;;;;;;4982125;28;20418;-43
2022/04/30 11:37:19;;;;;;;7.30;3.22;;;14.40;47.30;;;;;;4981629;28;20058;-43
2022/04/30 11:39:46;;;;;;;2.70;2.20;;;14.50;45.60;;;;;;4982010;28;20081;-42
2022/04/30 11:42:14;;;;;;;7.43;2.80;;;14.50;46.60;;;;;;4980761;28;20054;-42
2022/04/30 11:44:41;;;;;;;4.82;2.28;;;14.50;46.90;;;;;;4980784;28;20498;-44
2022/04/30 11:47:10;;;;;;;7.32;2.97;;;14.60;46.90;;;;;;4982560;28;20054;-43
2022/04/30 11:49:38;;;;;;;7.93;2.90;;;14.60;44.90;;;;;;4980945;28;20046;-44
2022/04/30 11:52:06;;;;;;;5.05;2.40;;;14.70;45.00;;;;;;4979866;28;20046;-42
2022/04/30 11:54:38;;;;;;;8.10;2.92;;;14.80;46.30;;;;;;4982402;28;20058;-42
2022/04/30 11:57:06;;;;;;;10.88;3.40;;;14.80;45.20;;;;;;4982460;28;20054;-42
2022/04/30 11:59:37;;;;;;;7.15;2.90;;;14.90;46.20;;;;;;4981424;28;20069;-42
2022/04/30 12:02:06;;;;;;;7.38;2.67;;;14.90;46.00;;;;;;4980554;28;20053;-43
2022/04/30 12:04:35;;;;;;;6.47;2.83;;;15.00;45.80;;;;;;4980117;28;20060;-43
2022/04/30 12:07:05;;;;;;;6.05;2.30;;;15.00;45.30;;;;;;4980638;28;20065;-43
2022/04/30 12:09:37;;;;;;;5.07;2.97;;;14.90;45.40;;;;;;4981662;28;20065;-44
2022/04/30 12:12:16;;;;;;;6.65;2.60;;;14.90;44.40;;;;;;4978579;28;20081;-42
2022/04/30 12:14:45;;;;;;;9.55;2.38;;;14.90;44.50;;;;;;4981525;28;20069;-43
2022/04/30 12:17:12;;;;;;;7.63;2.53;;;14.90;43.70;;;;;;4982113;28;20058;-43
2022/04/30 12:25:16;;;;;;;5.15;2.97;;;15.00;44.00;;;;;;4986833;28;20053;-43
2022/04/30 12:27:53;;;;;;;9.82;3.05;;;15.00;45.30;;;;;;4981562;28;20050;-43
2022/04/30 12:30:23;;;;;;;5.95;2.65;;;15.10;44.40;;;;;;4982505;28;20058;-42
2022/04/30 12:32:51;;;;;;;5.53;2.63;;;15.10;44.00;;;;;;4979097;28;20051;-45
2022/04/30 12:35:26;;;;;;;7.65;2.75;;;15.20;43.90;;;;;;4981911;28;20058;-43
2022/04/30 12:38:03;;;;;;;;;;;15.20;44.30;;;;;;4983321;28;20065;-44
2022/04/30 12:40:32;;;;;;;5.88;2.67;;;15.30;44.50;;;;;;4981479;28;19926;-45
2022/04/30 12:43:00;;;;;;;6.18;2.50;;;15.40;43.50;;;;;;4978722;28;20979;-42
2022/04/30 12:45:28;;;;;;;4.70;2.55;;;15.50;43.60;;;;;;4981103;28;20486;-42
2022/04/30 12:47:55;;;;;;;9.90;2.70;;;15.50;44.10;;;;;;4978166;28;20058;-45
2022/04/30 12:50:22;;;;;;;4.30;2.97;;;15.60;43.90;;;;;;4980915;28;20529;-46
2022/04/30 12:52:50;;;;;;;5.40;2.83;;;15.70;42.50;;;;;;4980061;28;20406;-44
2022/04/30 12:55:18;;;;;;;7.18;3.53;;;15.70;42.70;;;;;;4978800;28;20065;-43
2022/04/30 12:57:47;;;;;;;6.68;2.85;;;15.60;42.80;;;;;;4978965;28;20050;-43
2022/04/30 13:00:17;;;;;;;4.65;2.50;;;15.60;42.10;;;;;;4979843;28;20058;-43
2022/04/30 13:02:45;;;;;;;5.88;2.67;;;15.60;43.40;;;;;;4976718;28;20652;-42
2022/04/30 13:05:14;;;;;;;5.40;2.80;;;15.60;42.00;;;;;;4976052;28;20053;-42
2022/04/30 13:07:44;;;;;;;7.55;3.00;;;15.60;42.40;;;;;;4976799;28;20054;-44
2022/04/30 13:15:44;;;;;;;4.78;2.83;;;15.70;43.40;;;;;;4985010;28;20653;-43
2022/04/30 13:18:13;;;;;;;4.55;2.70;;;15.80;42.20;;;;;;4978893;28;20062;-42
2022/04/30 13:20:40;;;;;;;4.32;2.40;;;15.90;43.40;;;;;;4979917;28;20054;-42
2022/04/30 13:23:08;;;;;;;5.25;2.78;;;16.10;43.60;;;;;;4979919;28;20062;-43